sensor_id;sensor_type;location;lat;lon;timestamp;pressure;altitude;pressure_sealevel;temperature;humidity
60820;BME280;46641;48.904;9.126;2023-11-18T00:04:20;99431.91;;;11.98;63.52
60820;BME280;46641;48.904;9.126;2023-11-18T00:09:13;99432.72;;;11.99;63.27
60820;BME280;46641;48.904;9.126;2023-11-18T00:14:04;99433.72;;;11.98;63.53
60820;BME280;46641;48.904;9.126;2023-11-18T00:18:55;99427.75;;;11.96;63.29
60820;BME280;46641;48.904;9.126;2023-11-18T00:23:45;99435.63;;;11.96;63.16
60820;BME280;46641;48.904;9.126;2023-11-18T00:28:35;99429.56;;;11.95;63.25
60820;BME280;46641;48.904;9.126;2023-11-18T00:33:25;99427.91;;;11.94;63.55
60820;BME280;46641;48.904;9.126;2023-11-18T00:38:16;99441.84;;;11.95;63.55
60820;BME280;46641;48.904;9.126;2023-11-18T00:43:06;99437.56;;;11.93;63.43
60820;BME280;46641;48.904;9.126;2023-11-18T00:47:58;99433.41;;;11.91;63.47
60820;BME280;46641;48.904;9.126;2023-11-18T00:52:48;99437.84;;;11.90;63.19
60820;BME280;46641;48.904;9.126;2023-11-18T00:57:39;99440.56;;;11.89;63.32
60820;BME280;46641;48.904;9.126;2023-11-18T01:02:30;99449.41;;;11.88;63.45
60820;BME280;46641;48.904;9.126;2023-11-18T01:07:20;99443.47;;;11.86;63.50
60820;BME280;46641;48.904;9.126;2023-11-18T01:12:10;99441.81;;;11.85;63.14
60820;BME280;46641;48.904;9.126;2023-11-18T01:17:01;99442.75;;;11.84;63.38
60820;BME280;46641;48.904;9.126;2023-11-18T01:21:51;99458.50;;;11.84;63.40
60820;BME280;46641;48.904;9.126;2023-11-18T01:26:43;99459.56;;;11.81;63.51
60820;BME280;46641;48.904;9.126;2023-11-18T01:31:34;99467.28;;;11.83;63.21
60820;BME280;46641;48.904;9.126;2023-11-18T01:36:24;99473.50;;;11.82;63.41
60820;BME280;46641;48.904;9.126;2023-11-18T01:41:14;99465.78;;;11.80;63.62
60820;BME280;46641;48.904;9.126;2023-11-18T01:46:08;99467.44;;;11.81;63.37
60820;BME280;46641;48.904;9.126;2023-11-18T01:51:01;99463.16;;;11.80;63.35
60820;BME280;46641;48.904;9.126;2023-11-18T01:55:56;99457.78;;;11.82;63.21
60820;BME280;46641;48.904;9.126;2023-11-18T02:00:47;99469.25;;;11.81;63.28
60820;BME280;46641;48.904;9.126;2023-11-18T02:05:38;99469.25;;;11.81;63.44
60820;BME280;46641;48.904;9.126;2023-11-18T02:10:28;99464.97;;;11.80;63.33
60820;BME280;46641;48.904;9.126;2023-11-18T02:15:20;99471.03;;;11.80;63.63
60820;BME280;46641;48.904;9.126;2023-11-18T02:20:12;99464.09;;;11.79;63.28
60820;BME280;46641;48.904;9.126;2023-11-18T02:25:15;99459.84;;;11.78;63.37
60820;BME280;46641;48.904;9.126;2023-11-18T02:30:07;99465.09;;;11.78;63.69
60820;BME280;46641;48.904;9.126;2023-11-18T02:35:23;99453.75;;;11.78;63.39
60820;BME280;46641;48.904;9.126;2023-11-18T02:40:19;99464.25;;;11.78;63.46
60820;BME280;46641;48.904;9.126;2023-11-18T02:45:11;99466.88;;;11.78;63.54
60820;BME280;46641;48.904;9.126;2023-11-18T02:50:06;99469.50;;;11.78;63.37
60820;BME280;46641;48.904;9.126;2023-11-18T02:55:00;99465.91;;;11.79;63.57
60820;BME280;46641;48.904;9.126;2023-11-18T02:59:51;99460.81;;;11.77;63.42
60820;BME280;46641;48.904;9.126;2023-11-18T03:04:41;99444.09;;;11.78;63.71
60820;BME280;46641;48.904;9.126;2023-11-18T03:09:35;99451.84;;;11.80;63.72
60820;BME280;46641;48.904;9.126;2023-11-18T03:14:26;99444.09;;;11.78;63.43
60820;BME280;46641;48.904;9.126;2023-11-18T03:19:17;99453.75;;;11.78;63.49
60820;BME280;46641;48.904;9.126;2023-11-18T03:24:07;99451.25;;;11.76;63.60
60820;BME280;46641;48.904;9.126;2023-11-18T03:28:58;99453.75;;;11.78;63.37
60820;BME280;46641;48.904;9.126;2023-11-18T03:33:48;99438.28;;;11.75;63.60
60820;BME280;46641;48.904;9.126;2023-11-18T03:38:39;99456.38;;;11.78;63.39
60820;BME280;46641;48.904;9.126;2023-11-18T03:43:29;99462.59;;;11.77;63.59
60820;BME280;46641;48.904;9.126;2023-11-18T03:48:20;99461.75;;;11.76;63.37
60820;BME280;46641;48.904;9.126;2023-11-18T03:53:11;99459.97;;;11.77;63.36
60820;BME280;46641;48.904;9.126;2023-11-18T03:58:01;99455.69;;;11.76;63.40
60820;BME280;46641;48.904;9.126;2023-11-18T04:02:52;99460.91;;;11.76;63.52
60820;BME280;46641;48.904;9.126;2023-11-18T04:07:43;99452.13;;;11.77;63.16
60820;BME280;46641;48.904;9.126;2023-11-18T04:12:33;99454.84;;;11.75;63.57
60820;BME280;46641;48.904;9.126;2023-11-18T04:17:24;99459.28;;;11.75;63.51
60820;BME280;46641;48.904;9.126;2023-11-18T04:22:18;99460.91;;;11.76;63.39
60820;BME280;46641;48.904;9.126;2023-11-18T04:27:08;99462.59;;;11.77;63.26
60820;BME280;46641;48.904;9.126;2023-11-18T04:31:59;99465.34;;;11.75;63.58
60820;BME280;46641;48.904;9.126;2023-11-18T04:36:50;99460.91;;;11.76;63.37
60820;BME280;46641;48.904;9.126;2023-11-18T04:41:41;99452.13;;;11.77;63.39
60820;BME280;46641;48.904;9.126;2023-11-18T04:46:32;99455.69;;;11.76;63.24
60820;BME280;46641;48.904;9.126;2023-11-18T04:51:22;99457.34;;;11.77;63.49
60820;BME280;46641;48.904;9.126;2023-11-18T04:56:12;99454.84;;;11.75;63.49
60820;BME280;46641;48.904;9.126;2023-11-18T05:01:05;99460.09;;;11.75;63.62
60820;BME280;46641;48.904;9.126;2023-11-18T05:05:55;99465.34;;;11.75;63.27
60820;BME280;46641;48.904;9.126;2023-11-18T05:10:49;99454.84;;;11.75;63.49
60820;BME280;46641;48.904;9.126;2023-11-18T05:15:40;99449.03;;;11.72;63.41
60820;BME280;46641;48.904;9.126;2023-11-18T05:20:30;99455.94;;;11.73;63.41
60820;BME280;46641;48.904;9.126;2023-11-18T05:25:21;99458.72;;;11.71;63.55
60820;BME280;46641;48.904;9.126;2023-11-18T05:30:11;99448.22;;;11.71;63.65
60820;BME280;46641;48.904;9.126;2023-11-18T05:35:03;99450.00;;;11.70;63.32
60820;BME280;46641;48.904;9.126;2023-11-18T05:39:55;99442.25;;;11.69;63.54
60820;BME280;46641;48.904;9.126;2023-11-18T05:44:56;99448.59;;;11.66;63.36
60820;BME280;46641;48.904;9.126;2023-11-18T05:49:49;99453.84;;;11.66;63.40
60820;BME280;46641;48.904;9.126;2023-11-18T05:54:39;99449.56;;;11.65;63.32
60820;BME280;46641;48.904;9.126;2023-11-18T05:59:29;99450.53;;;11.64;63.38
60820;BME280;46641;48.904;9.126;2023-11-18T06:04:20;99445.28;;;11.64;63.51
60820;BME280;46641;48.904;9.126;2023-11-18T06:09:10;99434.91;;;11.63;63.28
60820;BME280;46641;48.904;9.126;2023-11-18T06:14:11;99430.78;;;11.60;63.31
60820;BME280;46641;48.904;9.126;2023-11-18T06:19:02;99421.94;;;11.61;63.36
60820;BME280;46641;48.904;9.126;2023-11-18T06:23:56;99427.47;;;11.58;63.41
60820;BME280;46641;48.904;9.126;2023-11-18T06:28:48;99447.72;;;11.56;63.35
60820;BME280;46641;48.904;9.126;2023-11-18T06:33:42;99462.63;;;11.56;63.24
60820;BME280;46641;48.904;9.126;2023-11-18T06:38:35;99475.06;;;11.54;63.24
60820;BME280;46641;48.904;9.126;2023-11-18T06:43:26;99471.56;;;11.53;63.39
60820;BME280;46641;48.904;9.126;2023-11-18T06:48:25;99462.19;;;11.51;63.47
60820;BME280;46641;48.904;9.126;2023-11-18T06:53:16;99459.59;;;11.51;63.53
60820;BME280;46641;48.904;9.126;2023-11-18T06:58:06;99449.22;;;11.49;63.46
60820;BME280;46641;48.904;9.126;2023-11-18T07:02:56;99446.72;;;11.48;63.44
60820;BME280;46641;48.904;9.126;2023-11-18T07:07:47;99455.41;;;11.48;63.43
60820;BME280;46641;48.904;9.126;2023-11-18T07:12:38;99457.06;;;11.49;63.55
60820;BME280;46641;48.904;9.126;2023-11-18T07:17:28;99473.78;;;11.48;63.27
60820;BME280;46641;48.904;9.126;2023-11-18T07:22:18;99475.69;;;11.46;63.29
60820;BME280;46641;48.904;9.126;2023-11-18T07:27:09;99481.88;;;11.45;63.45
60820;BME280;46641;48.904;9.126;2023-11-18T07:32:01;99475.81;;;11.44;63.35
60820;BME280;46641;48.904;9.126;2023-11-18T07:36:52;99475.00;;;11.44;63.43
60820;BME280;46641;48.904;9.126;2023-11-18T07:41:42;99468.91;;;11.43;63.43
60820;BME280;46641;48.904;9.126;2023-11-18T07:46:32;99460.09;;;11.44;63.32
60820;BME280;46641;48.904;9.126;2023-11-18T07:51:23;99460.22;;;11.43;63.64
60820;BME280;46641;48.904;9.126;2023-11-18T07:56:14;99449.72;;;11.43;63.63
60820;BME280;46641;48.904;9.126;2023-11-18T08:01:06;99467.97;;;11.44;63.49
60820;BME280;46641;48.904;9.126;2023-11-18T08:05:57;99468.91;;;11.43;63.28
60820;BME280;46641;48.904;9.126;2023-11-18T08:10:48;99462.72;;;11.44;63.30
60820;BME280;46641;48.904;9.126;2023-11-18T08:15:39;99458.09;;;11.37;61.84
60820;BME280;46641;48.904;9.126;2023-11-18T08:20:30;99471.06;;;11.17;61.32
60820;BME280;46641;48.904;9.126;2023-11-18T08:25:20;99476.81;;;11.11;61.45
60820;BME280;46641;48.904;9.126;2023-11-18T08:30:12;99472.94;;;11.06;61.58
60820;BME280;46641;48.904;9.126;2023-11-18T08:35:03;99463.94;;;10.98;61.52
60820;BME280;46641;48.904;9.126;2023-11-18T08:39:53;99465.69;;;10.98;61.42
60820;BME280;46641;48.904;9.126;2023-11-18T08:44:44;99469.28;;;10.97;61.35
60820;BME280;46641;48.904;9.126;2023-11-18T08:49:38;99476.44;;;10.95;61.43
60820;BME280;46641;48.904;9.126;2023-11-18T08:54:30;99474.47;;;10.44;62.96
60820;BME280;46641;48.904;9.126;2023-11-18T08:59:28;99455.53;;;10.84;62.20
60820;BME280;46641;48.904;9.126;2023-11-18T09:04:18;99447.09;;;11.01;61.96
60820;BME280;46641;48.904;9.126;2023-11-18T09:09:10;99453.25;;;11.11;61.81
60820;BME280;46641;48.904;9.126;2023-11-18T09:14:05;99460.59;;;11.17;61.74
60820;BME280;46641;48.904;9.126;2023-11-18T09:18:57;99459.41;;;11.21;61.68
60820;BME280;46641;48.904;9.126;2023-11-18T09:23:49;99454.84;;;11.23;61.98
60820;BME280;46641;48.904;9.126;2023-11-18T09:28:40;99444.81;;;11.29;61.95
60820;BME280;46641;48.904;9.126;2023-11-18T09:33:31;99446.22;;;11.33;62.00
60820;BME280;46641;48.904;9.126;2023-11-18T09:38:35;99447.50;;;11.38;61.95
60820;BME280;46641;48.904;9.126;2023-11-18T09:43:25;99458.56;;;11.42;62.01
60820;BME280;46641;48.904;9.126;2023-11-18T09:48:18;99440.63;;;11.47;61.71
60820;BME280;46641;48.904;9.126;2023-11-18T09:53:11;99455.84;;;11.53;61.84
60820;BME280;46641;48.904;9.126;2023-11-18T09:58:04;99442.38;;;11.58;61.94
60820;BME280;46641;48.904;9.126;2023-11-18T10:02:58;99447.91;;;11.64;61.86
60820;BME280;46641;48.904;9.126;2023-11-18T10:07:52;99443.22;;;11.68;61.76
60820;BME280;46641;48.904;9.126;2023-11-18T10:12:44;99441.03;;;11.73;61.74
60820;BME280;46641;48.904;9.126;2023-11-18T10:17:42;99433.59;;;11.78;61.67
60820;BME280;46641;48.904;9.126;2023-11-18T10:22:47;99426.44;;;11.80;61.68
60820;BME280;46641;48.904;9.126;2023-11-18T10:27:45;99430.56;;;11.83;61.61
60820;BME280;46641;48.904;9.126;2023-11-18T10:32:35;99437.38;;;11.85;61.68
60820;BME280;46641;48.904;9.126;2023-11-18T10:37:25;99438.66;;;11.91;61.64
60820;BME280;46641;48.904;9.126;2023-11-18T10:42:16;99437.41;;;11.95;62.01
60820;BME280;46641;48.904;9.126;2023-11-18T10:47:10;99424.75;;;12.00;61.76
60820;BME280;46641;48.904;9.126;2023-11-18T10:52:04;99428.03;;;12.02;61.71
60820;BME280;46641;48.904;9.126;2023-11-18T10:57:00;99427.50;;;12.08;61.45
60820;BME280;46641;48.904;9.126;2023-11-18T11:01:57;99416.47;;;12.14;61.69
60820;BME280;46641;48.904;9.126;2023-11-18T11:06:49;99406.28;;;12.21;61.56
60820;BME280;46641;48.904;9.126;2023-11-18T11:11:48;99410.97;;;12.27;61.38
60820;BME280;46641;48.904;9.126;2023-11-18T11:16:45;99407.97;;;12.32;60.97
60820;BME280;46641;48.904;9.126;2023-11-18T11:21:50;99409.19;;;12.37;61.29
60820;BME280;46641;48.904;9.126;2023-11-18T11:26:59;99401.47;;;12.46;61.04
60820;BME280;46641;48.904;9.126;2023-11-18T11:32:28;99398.44;;;12.50;60.96
60820;BME280;46641;48.904;9.126;2023-11-18T11:37:24;99394.97;;;12.59;60.57
60820;BME280;46641;48.904;9.126;2023-11-18T11:42:17;99388.47;;;12.63;60.60
60820;BME280;46641;48.904;9.126;2023-11-18T11:47:11;99384.63;;;12.68;60.75
60820;BME280;46641;48.904;9.126;2023-11-18T11:57:17;99360.72;;;12.71;60.86
60820;BME280;46641;48.904;9.126;2023-11-18T12:02:12;99352.25;;;12.77;60.34
60820;BME280;46641;48.904;9.126;2023-11-18T12:07:09;99346.03;;;12.78;60.30
60820;BME280;46641;48.904;9.126;2023-11-18T12:11:59;99333.84;;;12.77;60.35
60820;BME280;46641;48.904;9.126;2023-11-18T12:17:01;99312.22;;;12.16;60.93
60820;BME280;46641;48.904;9.126;2023-11-18T12:21:57;99298.09;;;12.56;59.58
60820;BME280;46641;48.904;9.126;2023-11-18T12:26:51;99296.56;;;12.63;59.70
60820;BME280;46641;48.904;9.126;2023-11-18T12:31:41;99283.31;;;12.65;59.05
60820;BME280;46641;48.904;9.126;2023-11-18T12:41:35;99275.81;;;12.60;58.86
60820;BME280;46641;48.904;9.126;2023-11-18T12:51:36;99270.72;;;12.69;59.28
60820;BME280;46641;48.904;9.126;2023-11-18T12:56:27;99270.44;;;12.72;58.78
60820;BME280;46641;48.904;9.126;2023-11-18T13:01:18;99254.09;;;12.78;58.32
60820;BME280;46641;48.904;9.126;2023-11-18T13:06:09;99258.78;;;12.84;58.36
60820;BME280;46641;48.904;9.126;2023-11-18T13:11:02;99256.69;;;12.88;58.46
60820;BME280;46641;48.904;9.126;2023-11-18T13:15:53;99261.28;;;12.76;57.67
60820;BME280;46641;48.904;9.126;2023-11-18T13:20:54;99253.88;;;12.61;58.58
60820;BME280;46641;48.904;9.126;2023-11-18T13:25:45;99238.13;;;12.61;57.55
60820;BME280;46641;48.904;9.126;2023-11-18T13:30:36;99232.59;;;12.65;57.61
60820;BME280;46641;48.904;9.126;2023-11-18T13:35:28;99217.09;;;12.61;56.82
60820;BME280;46641;48.904;9.126;2023-11-18T13:40:19;99200.66;;;12.59;56.83
60820;BME280;46641;48.904;9.126;2023-11-18T13:45:14;99193.56;;;12.70;57.17
60820;BME280;46641;48.904;9.126;2023-11-18T13:50:09;99189.25;;;12.78;57.55
60820;BME280;46641;48.904;9.126;2023-11-18T13:55:00;99187.59;;;12.77;58.12
60820;BME280;46641;48.904;9.126;2023-11-18T13:59:51;99177.22;;;12.76;58.63
60820;BME280;46641;48.904;9.126;2023-11-18T14:04:41;99167.56;;;12.76;59.08
60820;BME280;46641;48.904;9.126;2023-11-18T14:09:34;99183.84;;;12.80;59.79
60820;BME280;46641;48.904;9.126;2023-11-18T14:14:31;99168.63;;;12.83;59.73
60820;BME280;46641;48.904;9.126;2023-11-18T14:19:22;99169.19;;;12.87;59.82
60820;BME280;46641;48.904;9.126;2023-11-18T14:24:14;99150.34;;;12.92;60.05
60820;BME280;46641;48.904;9.126;2023-11-18T14:29:05;99129.03;;;12.95;60.35
60820;BME280;46641;48.904;9.126;2023-11-18T14:33:56;99138.56;;;12.96;60.56
60820;BME280;46641;48.904;9.126;2023-11-18T14:38:48;99130.66;;;12.96;60.72
60820;BME280;46641;48.904;9.126;2023-11-18T14:43:39;99125.41;;;12.96;60.63
60820;BME280;46641;48.904;9.126;2023-11-18T14:48:30;99110.47;;;12.96;60.80
60820;BME280;46641;48.904;9.126;2023-11-18T14:53:21;99107.56;;;12.99;61.04
60820;BME280;46641;48.904;9.126;2023-11-18T14:58:11;99124.31;;;12.98;61.18
60820;BME280;46641;48.904;9.126;2023-11-18T15:03:02;99132.88;;;13.00;61.44
60820;BME280;46641;48.904;9.126;2023-11-18T15:07:56;99135.34;;;13.02;61.15
60820;BME280;46641;48.904;9.126;2023-11-18T15:12:53;99133.53;;;13.02;61.31
60820;BME280;46641;48.904;9.126;2023-11-18T15:17:45;99131.06;;;13.01;61.18
60820;BME280;46641;48.904;9.126;2023-11-18T15:22:36;99117.78;;;13.02;61.71
60820;BME280;46641;48.904;9.126;2023-11-18T15:27:26;99121.22;;;13.03;61.68
60820;BME280;46641;48.904;9.126;2023-11-18T15:32:17;99112.69;;;13.01;61.74
60820;BME280;46641;48.904;9.126;2023-11-18T15:37:07;99117.09;;;13.00;61.87
60820;BME280;46641;48.904;9.126;2023-11-18T15:41:59;99111.84;;;13.00;61.81
60820;BME280;46641;48.904;9.126;2023-11-18T15:46:49;99113.50;;;13.01;61.98
60820;BME280;46641;48.904;9.126;2023-11-18T15:51:40;99108.06;;;13.03;61.92
60820;BME280;46641;48.904;9.126;2023-11-18T15:56:30;99107.94;;;13.04;62.09
60820;BME280;46641;48.904;9.126;2023-11-18T16:01:20;99111.56;;;13.03;61.87
60820;BME280;46641;48.904;9.126;2023-11-18T16:06:11;99088.56;;;13.05;62.14
60820;BME280;46641;48.904;9.126;2023-11-18T16:11:01;99074.47;;;13.06;61.90
60820;BME280;46641;48.904;9.126;2023-11-18T16:15:52;99060.34;;;13.07;61.98
60820;BME280;46641;48.904;9.126;2023-11-18T16:20:42;99053.47;;;13.06;61.82
60820;BME280;46641;48.904;9.126;2023-11-18T16:25:33;99046.69;;;13.04;62.14
60820;BME280;46641;48.904;9.126;2023-11-18T16:30:26;99063.41;;;13.03;61.94
60820;BME280;46641;48.904;9.126;2023-11-18T16:35:20;99057.19;;;13.04;62.31
60820;BME280;46641;48.904;9.126;2023-11-18T16:40:11;99044.06;;;13.04;62.23
60820;BME280;46641;48.904;9.126;2023-11-18T16:45:04;99029.94;;;13.05;62.13
60820;BME280;46641;48.904;9.126;2023-11-18T16:49:55;99010.84;;;13.03;62.28
60820;BME280;46641;48.904;9.126;2023-11-18T16:54:45;99000.50;;;13.01;62.31
60820;BME280;46641;48.904;9.126;2023-11-18T16:59:35;98998.56;;;13.03;62.66
60820;BME280;46641;48.904;9.126;2023-11-18T17:04:26;99002.03;;;13.04;62.46
60820;BME280;46641;48.904;9.126;2023-11-18T17:09:16;98999.38;;;13.04;62.60
60820;BME280;46641;48.904;9.126;2023-11-18T17:14:06;98999.22;;;13.05;62.73
60820;BME280;46641;48.904;9.126;2023-11-18T17:18:57;98995.94;;;13.03;62.41
60820;BME280;46641;48.904;9.126;2023-11-18T17:23:47;98979.31;;;13.03;62.60
60820;BME280;46641;48.904;9.126;2023-11-18T17:28:37;98981.81;;;13.04;62.74
60820;BME280;46641;48.904;9.126;2023-11-18T17:33:28;98960.78;;;13.04;62.79
60820;BME280;46641;48.904;9.126;2023-11-18T17:38:19;98951.09;;;13.05;62.87
60820;BME280;46641;48.904;9.126;2023-11-18T17:43:09;98930.91;;;13.05;62.73
60820;BME280;46641;48.904;9.126;2023-11-18T17:48:00;98913.50;;;13.04;63.19
60820;BME280;46641;48.904;9.126;2023-11-18T17:52:56;98917.13;;;13.03;63.20
60820;BME280;46641;48.904;9.126;2023-11-18T17:57:47;98924.81;;;13.05;63.35
60820;BME280;46641;48.904;9.126;2023-11-18T18:02:41;98925.66;;;13.05;63.13
60820;BME280;46641;48.904;9.126;2023-11-18T18:07:31;98939.78;;;13.04;63.15
60820;BME280;46641;48.904;9.126;2023-11-18T18:12:21;98932.88;;;13.03;63.18
60820;BME280;46641;48.904;9.126;2023-11-18T18:17:12;98911.84;;;13.03;63.40
60820;BME280;46641;48.904;9.126;2023-11-18T18:22:02;98898.84;;;13.02;63.21
60820;BME280;46641;48.904;9.126;2023-11-18T18:26:53;98903.28;;;13.01;63.32
60820;BME280;46641;48.904;9.126;2023-11-18T18:31:44;98901.66;;;13.00;63.15
60820;BME280;46641;48.904;9.126;2023-11-18T18:36:34;98879.78;;;13.00;63.31
60820;BME280;46641;48.904;9.126;2023-11-18T18:41:26;98876.34;;;12.99;63.50
60820;BME280;46641;48.904;9.126;2023-11-18T18:46:16;98871.91;;;13.00;63.26
60820;BME280;46641;48.904;9.126;2023-11-18T18:51:07;98853.69;;;12.98;63.58
60820;BME280;46641;48.904;9.126;2023-11-18T18:55:57;98845.78;;;12.98;63.31
60820;BME280;46641;48.904;9.126;2023-11-18T19:00:47;98820.50;;;12.97;63.41
60820;BME280;46641;48.904;9.126;2023-11-18T19:05:40;98821.31;;;12.98;63.59
60820;BME280;46641;48.904;9.126;2023-11-18T19:10:30;98810.97;;;12.96;63.84
60820;BME280;46641;48.904;9.126;2023-11-18T19:15:21;98790.78;;;12.97;63.63
60820;BME280;46641;48.904;9.126;2023-11-18T19:20:12;98791.91;;;12.94;63.77
60820;BME280;46641;48.904;9.126;2023-11-18T19:25:05;98758.59;;;12.95;63.50
60820;BME280;46641;48.904;9.126;2023-11-18T19:29:58;98744.63;;;12.94;64.06
60820;BME280;46641;48.904;9.126;2023-11-18T19:34:49;98748.22;;;12.93;63.76
60820;BME280;46641;48.904;9.126;2023-11-18T19:39:39;98764.28;;;12.90;63.88
60820;BME280;46641;48.904;9.126;2023-11-18T19:44:29;98743.13;;;12.92;64.17
60820;BME280;46641;48.904;9.126;2023-11-18T19:49:20;98721.31;;;12.91;64.04
60820;BME280;46641;48.904;9.126;2023-11-18T19:54:11;98725.88;;;12.89;64.00
60820;BME280;46641;48.904;9.126;2023-11-18T19:59:02;98716.19;;;12.90;63.98
60820;BME280;46641;48.904;9.126;2023-11-18T20:03:54;98701.25;;;12.90;64.02
60820;BME280;46641;48.904;9.126;2023-11-18T20:08:44;98687.16;;;12.91;63.97
60820;BME280;46641;48.904;9.126;2023-11-18T20:13:35;98683.84;;;12.89;64.20
60820;BME280;46641;48.904;9.126;2023-11-18T20:18:25;98695.34;;;12.88;64.40
60820;BME280;46641;48.904;9.126;2023-11-18T20:23:15;98701.59;;;12.87;64.19
60820;BME280;46641;48.904;9.126;2023-11-18T20:28:07;98687.28;;;12.90;64.08
60820;BME280;46641;48.904;9.126;2023-11-18T20:32:57;98689.09;;;12.89;64.15
60820;BME280;46641;48.904;9.126;2023-11-18T20:37:47;98685.47;;;12.90;63.92
60820;BME280;46641;48.904;9.126;2023-11-18T20:42:38;98675.97;;;12.89;64.10
60820;BME280;46641;48.904;9.126;2023-11-18T20:47:30;98675.16;;;12.89;64.31
60820;BME280;46641;48.904;9.126;2023-11-18T20:52:21;98668.09;;;12.89;64.38
60820;BME280;46641;48.904;9.126;2023-11-18T20:57:11;98663.66;;;12.90;64.07
60820;BME280;46641;48.904;9.126;2023-11-18T21:02:01;98673.34;;;12.89;64.01
60820;BME280;46641;48.904;9.126;2023-11-18T21:06:52;98661.19;;;12.88;64.20
60820;BME280;46641;48.904;9.126;2023-11-18T21:11:42;98673.19;;;12.91;64.18
60820;BME280;46641;48.904;9.126;2023-11-18T21:16:32;98659.06;;;12.92;64.04
60820;BME280;46641;48.904;9.126;2023-11-18T21:21:22;98654.63;;;12.92;64.10
60820;BME280;46641;48.904;9.126;2023-11-18T21:26:13;98656.59;;;12.90;64.17
60820;BME280;46641;48.904;9.126;2023-11-18T21:31:04;98653.81;;;12.92;64.18
60820;BME280;46641;48.904;9.126;2023-11-18T21:35:56;98645.13;;;12.91;64.00
60820;BME280;46641;48.904;9.126;2023-11-18T21:40:47;98639.03;;;12.91;64.12
60820;BME280;46641;48.904;9.126;2023-11-18T21:45:37;98644.94;;;12.93;63.94
60820;BME280;46641;48.904;9.126;2023-11-18T21:50:27;98653.66;;;12.93;64.33
60820;BME280;46641;48.904;9.126;2023-11-18T21:55:18;98655.63;;;12.91;64.33
60820;BME280;46641;48.904;9.126;2023-11-18T22:00:09;98648.72;;;12.90;64.31
60820;BME280;46641;48.904;9.126;2023-11-18T22:05:01;98647.56;;;12.93;64.33
60820;BME280;46641;48.904;9.126;2023-11-18T22:09:52;98623.78;;;12.94;64.01
60820;BME280;46641;48.904;9.126;2023-11-18T22:14:42;98599.16;;;12.95;64.36
60820;BME280;46641;48.904;9.126;2023-11-18T22:19:32;98621.97;;;12.95;64.26
60820;BME280;46641;48.904;9.126;2023-11-18T22:24:23;98608.03;;;12.94;64.32
60820;BME280;46641;48.904;9.126;2023-11-18T22:29:13;98610.66;;;12.94;63.83
60820;BME280;46641;48.904;9.126;2023-11-18T22:34:04;98604.41;;;12.95;64.10
60820;BME280;46641;48.904;9.126;2023-11-18T22:38:55;98596.69;;;12.94;64.23
60820;BME280;46641;48.904;9.126;2023-11-18T22:43:46;98587.81;;;12.95;64.19
60820;BME280;46641;48.904;9.126;2023-11-18T22:48:36;98577.16;;;12.96;64.15
60820;BME280;46641;48.904;9.126;2023-11-18T22:53:27;98571.88;;;12.96;64.37
60820;BME280;46641;48.904;9.126;2023-11-18T22:58:17;98574.50;;;12.96;64.22
60820;BME280;46641;48.904;9.126;2023-11-18T23:03:08;98566.63;;;12.96;64.56
60820;BME280;46641;48.904;9.126;2023-11-18T23:07:58;98565.66;;;12.97;64.36
60820;BME280;46641;48.904;9.126;2023-11-18T23:12:48;98568.44;;;12.96;64.27
60820;BME280;46641;48.904;9.126;2023-11-18T23:17:39;98547.44;;;12.96;64.37
60820;BME280;46641;48.904;9.126;2023-11-18T23:22:31;98539.53;;;12.96;64.63
60820;BME280;46641;48.904;9.126;2023-11-18T23:27:21;98529.03;;;12.96;64.54
60820;BME280;46641;48.904;9.126;2023-11-18T23:32:11;98512.78;;;12.92;64.73
60820;BME280;46641;48.904;9.126;2023-11-18T23:37:02;98510.16;;;12.92;64.53
60820;BME280;46641;48.904;9.126;2023-11-18T23:41:54;98513.44;;;12.94;64.83
60820;BME280;46641;48.904;9.126;2023-11-18T23:46:45;98503.75;;;12.95;64.69
60820;BME280;46641;48.904;9.126;2023-11-18T23:51:35;98509.84;;;12.95;64.44
60820;BME280;46641;48.904;9.126;2023-11-18T23:56:25;98513.94;;;12.98;64.81
